Pagrindinis puslapis
METAR-TAF:

METAR-TAF

Oro uostai :

Krotonė, Italija

platuma: 39-00N, ilguma: 017-04E, Aukštis: 155 m

Dabartinis oras

Ataskaita buvo paskelbta 3 valandos ir 53 minutes, ne 17:50 UTC
Vėjas 5 kt iš Pietvakarių
Temperatūra 13°C
Drėgmė 67%
Slėgis 1020 hPa
Matomumas 10 km arba daugiau
nėra debesų žemiau 1500 m ir nėra kamuolinių lietaus debesų

METAR: LIBC 091750Z 22005KT CAVOK 13/07 Q1020

Laikas: 23:43 (21:43 UTC)

Prognozė

Ataskaita buvo paskelbta 10 valandos ir 43 minutes, ne 11:00 UTC
Prognozė galioja nuo 09 metu 12 UTC su 10 metu 12 UTC
Vėjas 8 kt iš Šiaurės
Matomumas 10 km arba daugiau
nėra debesų žemiau 1500 m ir nėra kamuolinių lietaus debesų

TAF: LIBC 091100Z 0912/1012 36008KT CAVOK

Orai ataskaitas ir orų prognozės (METAR, TAF).

turimą stotys yra geltonos ir raudonos taškus žemėlapyje.

Perkelti pele per norėdami pamatyti stoties vardą.

Tada spustelėkite, norėdami matyti oro stebėjimo ir prognozės.

Norėdami pakeisti žemėlapį: spustelėkite ant žalios mygtukų su juodo kryžiaus žemyn,; žalią mygtuką su brūkšneliu, jei norite nutolinti; arba žalių rodyklių gretimoms žemėlapius.


METAR-TAF: